Time;durP1;ratioP1;P1;durP2;ratioP2;P2;SDS_P1;SDS_P2;PMS_P1;PMS_P2;Temp;Humidity;BMP_temperature;BMP_pressure;BME280_temperature;BME280_humidity;BME280_pressure;Samples;Min_cycle;Max_cycle;Signal;HPM_P1;HPM_P2
2022/04/14 04:01:53;;;;;;;19.37;16.00;;;13.00;99.90;;;;;;5307840;23;20830;-62
2022/04/14 04:04:20;;;;;;;19.60;15.83;;;13.00;99.90;;;;;;4978628;28;20451;-63
2022/04/14 04:06:47;;;;;;;17.50;14.70;;;13.00;99.90;;;;;;4979011;28;20473;-62
2022/04/14 04:09:13;;;;;;;22.27;16.03;;;13.00;99.90;;;;;;4978991;28;20529;-62
2022/04/14 04:11:40;;;;;;;18.20;16.50;;;13.00;99.90;;;;;;4978519;28;20467;-63
2022/04/14 04:14:07;;;;;;;24.70;19.23;;;13.00;99.90;;;;;;4978672;28;20450;-63
2022/04/14 04:16:34;;;;;;;21.73;19.20;;;12.90;99.90;;;;;;4978498;28;20455;-63
2022/04/14 04:19:02;;;;;;;24.93;22.23;;;12.90;99.90;;;;;;4978514;28;20459;-63
2022/04/14 04:21:30;;;;;;;27.07;22.30;;;12.90;99.90;;;;;;4978314;28;20486;-62
2022/04/14 04:23:57;;;;;;;26.90;24.00;;;12.90;99.90;;;;;;4978585;28;20454;-63
2022/04/14 04:26:23;;;;;;;28.67;24.73;;;12.90;99.90;;;;;;4978917;28;20462;-62
2022/04/14 04:28:50;;;;;;;35.00;25.07;;;12.90;99.90;;;;;;4977988;28;20459;-63
2022/04/14 04:31:17;;;;;;;27.97;21.50;;;12.90;99.90;;;;;;4978037;28;20471;-63
2022/04/14 04:33:44;;;;;;;20.23;17.97;;;12.80;99.90;;;;;;4978272;28;20482;-63
2022/04/14 04:36:12;;;;;;;19.67;17.57;;;12.80;99.90;;;;;;4978086;28;20487;-62
2022/04/14 04:38:39;;;;;;;18.73;16.53;;;12.80;99.90;;;;;;4978308;28;20458;-63
2022/04/14 04:41:06;;;;;;;22.33;19.03;;;12.80;99.90;;;;;;4977959;28;20492;-63
2022/04/14 04:43:32;;;;;;;23.63;19.40;;;12.80;99.90;;;;;;4977906;28;20458;-63
2022/04/14 04:45:59;;;;;;;20.73;17.37;;;12.70;99.90;;;;;;4978196;28;20486;-63
2022/04/14 04:48:26;;;;;;;19.00;16.33;;;12.60;99.90;;;;;;4977754;28;20938;-63
2022/04/14 04:50:53;;;;;;;19.67;16.17;;;12.50;99.90;;;;;;4977802;28;20471;-62
2022/04/14 04:53:21;;;;;;;21.83;15.33;;;12.50;99.90;;;;;;4977606;28;20459;-64
2022/04/14 04:55:47;;;;;;;19.40;16.10;;;12.50;99.90;;;;;;4977638;28;20454;-62
2022/04/14 04:58:14;;;;;;;24.67;16.00;;;12.50;99.90;;;;;;4977531;28;20455;-62
2022/04/14 05:00:43;;;;;;;20.03;15.33;;;12.40;99.90;;;;;;4977001;28;20523;-62
2022/04/14 05:03:10;;;;;;;22.53;15.27;;;12.40;99.90;;;;;;4979333;28;20910;-63
2022/04/14 05:05:37;;;;;;;17.30;15.47;;;12.50;99.90;;;;;;4977623;28;20459;-62
2022/04/14 05:08:05;;;;;;;21.17;17.20;;;12.50;99.90;;;;;;4976952;28;20922;-63
2022/04/14 05:10:34;;;;;;;24.87;19.33;;;12.50;99.90;;;;;;4976897;28;20990;-62
2022/04/14 05:13:01;;;;;;;20.20;18.10;;;12.60;99.90;;;;;;4976679;28;20925;-63
2022/04/14 05:15:27;;;;;;;25.80;23.10;;;12.60;99.90;;;;;;4977050;28;20847;-62
2022/04/14 05:17:54;;;;;;;36.00;27.30;;;12.60;99.90;;;;;;4976751;28;20465;-62
2022/04/14 05:20:21;;;;;;;27.50;23.70;;;12.70;99.90;;;;;;4976906;28;20486;-63
2022/04/14 05:22:47;;;;;;;33.40;28.50;;;12.80;99.90;;;;;;4976998;28;20462;-63
2022/04/14 05:25:14;;;;;;;37.33;30.30;;;12.80;99.90;;;;;;4976819;28;20958;-62
2022/04/14 05:27:43;;;;;;;36.33;30.27;;;12.90;99.90;;;;;;4976951;28;20457;-62
2022/04/14 05:30:10;;;;;;;34.60;30.20;;;13.00;99.90;;;;;;4976873;28;20482;-63
2022/04/14 05:32:38;;;;;;;34.70;29.83;;;13.20;99.90;;;;;;4976898;28;20538;-63
2022/04/14 05:35:07;;;;;;;34.23;30.57;;;13.30;99.90;;;;;;4976879;28;20455;-62
2022/04/14 05:37:35;;;;;;;36.70;32.63;;;13.50;99.90;;;;;;4976825;28;20529;-62
2022/04/14 05:40:02;;;;;;;38.50;32.97;;;13.60;99.90;;;;;;4977083;28;20553;-63
2022/04/14 05:42:29;;;;;;;43.03;32.70;;;13.70;99.90;;;;;;4976411;28;20483;-62
2022/04/14 05:44:57;;;;;;;37.30;32.97;;;13.90;99.90;;;;;;4976731;28;20466;-62
2022/04/14 05:47:24;;;;;;;36.33;32.47;;;14.10;99.90;;;;;;4976507;28;20866;-63
2022/04/14 05:49:51;;;;;;;35.87;32.17;;;14.30;99.90;;;;;;4976975;28;20459;-62
2022/04/14 05:52:18;;;;;;;36.00;32.10;;;14.50;99.90;;;;;;4979692;28;20599;-63
2022/04/14 05:54:46;;;;;;;34.70;31.00;;;14.70;99.90;;;;;;4980945;28;20450;-63
2022/04/14 05:57:13;;;;;;;35.27;31.87;;;14.90;99.90;;;;;;4980642;28;20515;-63
2022/04/14 05:59:39;;;;;;;33.27;29.87;;;15.20;99.90;;;;;;4977534;28;20459;-63
2022/04/14 06:02:08;;;;;;;34.57;30.87;;;15.40;99.90;;;;;;4976032;28;20482;-63
2022/04/14 06:04:35;;;;;;;32.50;29.30;;;15.70;99.90;;;;;;4976970;28;20458;-63
2022/04/14 06:07:01;;;;;;;34.67;31.27;;;15.90;99.90;;;;;;4976339;28;20466;-63
2022/04/14 06:09:28;;;;;;;33.43;29.97;;;16.10;99.90;;;;;;4976194;28;20455;-63
2022/04/14 06:11:55;;;;;;;32.93;29.63;;;16.10;99.90;;;;;;4976293;28;20530;-63
2022/04/14 06:14:21;;;;;;;30.83;27.03;;;16.40;99.90;;;;;;4976287;28;20466;-61
2022/04/14 06:16:48;;;;;;;30.80;27.70;;;16.60;99.90;;;;;;4976235;28;20466;-61
2022/04/14 06:19:16;;;;;;;29.30;26.33;;;16.90;99.90;;;;;;4976441;28;20451;-62
2022/04/14 06:21:43;;;;;;;29.70;26.77;;;17.20;99.90;;;;;;4976053;28;20541;-62
2022/04/14 06:24:10;;;;;;;28.67;25.67;;;17.50;99.90;;;;;;4975823;28;20969;-64
2022/04/14 06:26:37;;;;;;;29.20;25.57;;;17.80;99.90;;;;;;4975762;28;20461;-62
2022/04/14 06:29:04;;;;;;;28.80;26.20;;;18.00;99.90;;;;;;4975851;28;20459;-62
2022/04/14 06:31:31;;;;;;;30.13;26.90;;;18.30;99.90;;;;;;4975650;28;20522;-62
2022/04/14 06:33:57;;;;;;;29.30;26.23;;;18.70;99.90;;;;;;4978597;28;20459;-62
2022/04/14 06:36:25;;;;;;;27.23;24.63;;;18.90;99.90;;;;;;4986899;28;20455;-63
2022/04/14 06:38:52;;;;;;;26.87;24.07;;;19.30;99.90;;;;;;4979631;28;20486;-62
2022/04/14 06:41:19;;;;;;;25.93;23.23;;;19.50;99.90;;;;;;4976084;28;20483;-62
2022/04/14 06:43:49;;;;;;;28.90;25.30;;;19.70;99.90;;;;;;4976094;28;20455;-62
2022/04/14 06:46:16;;;;;;;25.60;23.23;;;19.90;99.90;;;;;;4976589;28;20466;-62
2022/04/14 06:48:43;;;;;;;24.10;21.70;;;20.00;99.90;;;;;;4975822;28;20506;-62
2022/04/14 06:51:09;;;;;;;25.10;22.53;;;20.30;99.90;;;;;;4975843;28;20502;-62
2022/04/14 06:53:38;;;;;;;25.57;23.00;;;20.50;99.90;;;;;;4976093;28;20823;-62
2022/04/14 06:56:05;;;;;;;25.30;22.70;;;20.80;99.90;;;;;;4975899;28;20467;-62
2022/04/14 06:58:32;;;;;;;24.03;21.33;;;20.90;99.90;;;;;;4975640;28;20455;-62
2022/04/14 07:00:58;;;;;;;25.20;22.80;;;21.10;99.90;;;;;;4975368;28;20502;-62
2022/04/14 07:03:27;;;;;;;28.67;23.40;;;21.30;99.90;;;;;;4975855;28;20461;-62
2022/04/14 07:05:54;;;;;;;25.23;22.47;;;21.20;99.90;;;;;;4975789;28;20497;-62
2022/04/14 07:08:22;;;;;;;24.10;21.60;;;21.30;99.90;;;;;;4975773;28;20822;-62
2022/04/14 07:10:50;;;;;;;23.50;21.40;;;21.50;99.90;;;;;;4975609;28;20475;-62
2022/04/14 07:13:16;;;;;;;24.03;21.80;;;21.80;99.90;;;;;;4975888;28;20481;-63
2022/04/14 07:15:43;;;;;;;23.47;21.00;;;22.10;99.90;;;;;;4975605;28;20467;-63
2022/04/14 07:18:10;;;;;;;22.47;20.23;;;22.20;99.90;;;;;;4975883;28;20466;-63
2022/04/14 07:20:37;;;;;;;21.80;19.70;;;22.40;99.90;;;;;;4975192;28;20982;-63
2022/04/14 07:23:06;;;;;;;22.50;19.33;;;22.30;99.90;;;;;;4975645;28;20454;-63
2022/04/14 07:25:33;;;;;;;22.57;20.27;;;22.70;99.90;;;;;;4975873;28;20860;-63
2022/04/14 07:28:01;;;;;;;23.27;20.23;;;23.10;99.90;;;;;;4975844;28;20522;-64
2022/04/14 07:30:29;;;;;;;23.90;19.70;;;23.20;99.90;;;;;;4975456;28;20474;-64
2022/04/14 07:32:56;;;;;;;22.23;19.93;;;23.40;99.90;;;;;;4974859;28;21037;-64
2022/04/14 07:35:25;;;;;;;22.60;20.50;;;23.60;99.90;;;;;;4974994;28;20466;-64
2022/04/14 07:37:52;;;;;;;20.40;18.60;;;23.60;99.90;;;;;;4974747;28;20513;-64
2022/04/14 07:40:19;;;;;;;22.30;20.00;;;23.90;99.90;;;;;;4975040;28;20455;-64
2022/04/14 07:42:47;;;;;;;21.40;19.50;;;24.10;99.90;;;;;;4975140;28;20482;-64
2022/04/14 07:45:16;;;;;;;21.07;19.00;;;24.20;99.20;;;;;;4975026;28;20466;-64
2022/04/14 07:47:44;;;;;;;19.87;18.00;;;24.50;98.50;;;;;;4975176;28;20466;-64
2022/04/14 07:50:11;;;;;;;21.27;19.00;;;24.90;98.10;;;;;;4975023;28;20458;-63
2022/04/14 07:52:45;;;;;;;21.87;19.57;;;25.10;96.70;;;;;;4974810;28;20455;-64
2022/04/14 07:55:12;;;;;;;20.03;18.20;;;25.10;97.40;;;;;;4974925;28;20942;-61
2022/04/14 07:57:38;;;;;;;20.40;18.60;;;25.40;95.90;;;;;;4975088;28;20465;-61
2022/04/14 08:00:07;;;;;;;18.20;16.40;;;25.80;95.80;;;;;;4975446;28;20446;-61
2022/04/14 08:02:35;;;;;;;20.33;18.17;;;26.00;94.20;;;;;;4974375;28;20482;-61
2022/04/14 08:05:01;;;;;;;20.80;18.60;;;26.50;93.00;;;;;;4974933;28;20459;-61
2022/04/14 08:07:28;;;;;;;22.13;19.73;;;26.80;91.90;;;;;;4974122;28;20946;-61
2022/04/14 08:09:55;;;;;;;20.87;19.00;;;27.00;91.50;;;;;;4974417;28;20446;-61
2022/04/14 08:12:21;;;;;;;19.20;17.40;;;27.20;90.70;;;;;;4974271;28;20478;-62
2022/04/14 08:14:48;;;;;;;19.40;17.60;;;27.40;89.90;;;;;;4974493;28;20455;-61
2022/04/14 08:17:15;;;;;;;19.50;17.53;;;27.30;88.10;;;;;;4974182;28;20908;-63
2022/04/14 08:19:43;;;;;;;19.90;17.80;;;26.70;88.80;;;;;;4974479;28;20454;-62
2022/04/14 08:22:09;;;;;;;24.57;19.77;;;26.80;89.50;;;;;;4973922;28;20489;-61
2022/04/14 08:24:36;;;;;;;20.83;18.77;;;26.90;89.20;;;;;;4974337;28;20462;-61
2022/04/14 08:27:03;;;;;;;19.57;17.70;;;26.80;87.80;;;;;;4974477;28;20504;-63
2022/04/14 08:29:30;;;;;;;21.03;19.00;;;26.70;89.10;;;;;;4974232;28;20462;-63
2022/04/14 08:31:57;;;;;;;18.97;17.20;;;26.80;87.50;;;;;;4974491;28;20530;-61
2022/04/14 08:34:24;;;;;;;20.07;18.07;;;26.80;85.20;;;;;;4975011;28;20455;-63
2022/04/14 08:36:53;;;;;;;20.43;17.97;;;26.60;88.30;;;;;;4974134;28;20826;-63
2022/04/14 08:39:20;;;;;;;20.97;19.17;;;26.40;86.60;;;;;;4976646;28;20525;-63
2022/04/14 08:41:53;;;;;;;20.40;18.60;;;26.20;88.60;;;;;;4977415;28;20570;-63
2022/04/14 08:44:24;;;;;;;23.00;20.63;;;26.20;89.80;;;;;;4977429;28;20917;-63
2022/04/14 08:46:52;;;;;;;19.20;17.40;;;26.50;90.40;;;;;;4977648;28;20446;-64
2022/04/14 08:49:19;;;;;;;21.10;19.20;;;27.00;89.40;;;;;;4977611;28;20558;-63
2022/04/14 08:51:47;;;;;;;21.07;19.17;;;26.90;83.60;;;;;;4977578;28;20474;-64
2022/04/14 08:54:18;;;;;;;21.03;18.47;;;26.50;85.10;;;;;;4977479;28;20470;-63
2022/04/14 08:56:46;;;;;;;21.23;19.03;;;26.50;86.10;;;;;;4977106;28;20914;-63
2022/04/14 08:59:14;;;;;;;20.57;17.97;;;26.80;84.10;;;;;;4977507;28;20533;-63
2022/04/14 09:01:40;;;;;;;19.20;17.60;;;27.30;86.40;;;;;;4977268;28;20482;-63
2022/04/14 09:04:08;;;;;;;19.43;17.70;;;27.60;82.90;;;;;;4977723;28;20454;-63
2022/04/14 09:06:35;;;;;;;19.67;17.57;;;27.80;82.90;;;;;;4977252;28;20459;-63
2022/04/14 09:09:02;;;;;;;17.87;16.00;;;28.10;80.90;;;;;;4977481;28;20450;-63
2022/04/14 09:11:31;;;;;;;18.93;16.70;;;28.20;79.10;;;;;;4977436;28;20834;-63
2022/04/14 09:14:00;;;;;;;18.50;16.67;;;28.40;78.90;;;;;;4978230;28;20541;-63
2022/04/14 09:16:30;;;;;;;17.43;15.63;;;28.60;78.60;;;;;;4993339;28;20443;-63
2022/04/14 09:18:57;;;;;;;17.20;15.13;;;29.00;76.10;;;;;;4980258;28;20452;-64
2022/04/14 09:21:24;;;;;;;17.07;15.50;;;29.30;74.50;;;;;;4976853;28;20853;-63
2022/04/14 09:23:52;;;;;;;16.00;14.30;;;29.30;72.70;;;;;;4977075;28;20459;-63
2022/04/14 09:26:23;;;;;;;17.03;15.57;;;29.40;73.10;;;;;;4976713;28;20951;-63
2022/04/14 09:29:21;;;;;;;18.80;16.90;;;29.70;70.30;;;;;;4977005;28;20443;-64
2022/04/14 09:31:49;;;;;;;16.83;15.47;;;29.80;71.50;;;;;;4943398;28;20974;-64
2022/04/14 09:34:18;;;;;;;18.93;16.60;;;29.70;69.80;;;;;;4976988;28;20461;-64
2022/04/14 09:37:06;;;;;;;18.23;16.40;;;29.90;72.40;;;;;;4976801;28;20498;-64
2022/04/14 09:39:50;;;;;;;17.43;15.60;;;29.50;69.90;;;;;;4977277;28;20766;-64
2022/04/14 09:42:17;;;;;;;17.40;15.70;;;29.10;69.90;;;;;;4977088;28;20606;-63
2022/04/14 09:44:45;;;;;;;20.20;18.20;;;28.90;72.10;;;;;;4977065;28;20632;-64
2022/04/14 09:47:12;;;;;;;18.80;17.10;;;28.80;73.50;;;;;;4976951;28;20505;-63
2022/04/14 09:49:41;;;;;;;19.07;17.07;;;29.20;69.00;;;;;;4975528;28;20964;-63
2022/04/14 09:52:08;;;;;;;16.67;15.00;;;29.40;68.40;;;;;;4976604;28;20473;-63
2022/04/14 09:54:36;;;;;;;18.13;16.50;;;29.70;69.60;;;;;;4976481;28;20451;-64
2022/04/14 09:57:03;;;;;;;17.47;15.87;;;30.00;72.10;;;;;;4976776;28;20573;-64
2022/04/14 09:59:30;;;;;;;16.83;15.33;;;29.70;70.90;;;;;;4976824;28;20463;-64
2022/04/14 10:02:11;;;;;;;18.40;16.80;;;30.00;71.20;;;;;;4976183;28;20541;-64
2022/04/14 10:04:40;;;;;;;18.50;16.80;;;30.50;67.30;;;;;;4976224;28;20913;-64
2022/04/14 10:07:11;;;;;;;17.67;15.50;;;30.40;66.50;;;;;;4976397;28;20455;-64
2022/04/14 10:09:40;;;;;;;17.10;15.60;;;30.40;65.40;;;;;;4976454;28;20465;-64
2022/04/14 10:12:29;;;;;;;19.87;16.90;;;29.90;67.30;;;;;;4976294;28;20474;-64
2022/04/14 10:15:05;;;;;;;19.67;17.60;;;29.90;70.20;;;;;;4976392;28;20439;-64
2022/04/14 10:17:35;;;;;;;18.83;17.10;;;30.10;70.90;;;;;;4975969;28;20996;-64
2022/04/14 10:20:04;;;;;;;19.90;17.90;;;30.50;65.90;;;;;;4976161;28;20455;-64
2022/04/14 10:22:32;;;;;;;18.27;16.57;;;30.30;66.30;;;;;;4975930;28;20483;-64
2022/04/14 10:25:00;;;;;;;18.63;16.70;;;30.30;64.50;;;;;;4976062;28;20459;-64
2022/04/14 10:27:27;;;;;;;18.33;16.87;;;30.30;65.70;;;;;;4976124;28;20465;-64
2022/04/14 10:29:55;;;;;;;17.90;16.03;;;30.10;65.30;;;;;;4976084;28;20465;-64
2022/04/14 10:32:22;;;;;;;18.13;16.60;;;30.00;66.50;;;;;;4976009;28;20861;-66
2022/04/14 10:34:52;;;;;;;19.73;16.37;;;29.90;67.40;;;;;;4976205;28;20950;-63
2022/04/14 10:37:30;;;;;;;18.50;16.60;;;30.10;66.30;;;;;;4975910;28;20865;-63
2022/04/14 10:39:57;;;;;;;19.83;17.90;;;29.60;66.80;;;;;;4975924;28;20443;-64
2022/04/14 10:42:26;;;;;;;19.33;17.50;;;29.60;66.90;;;;;;4975901;28;20486;-63
2022/04/14 10:44:54;;;;;;;17.90;16.00;;;29.30;66.10;;;;;;4975797;28;20461;-64
2022/04/14 10:47:34;;;;;;;17.30;15.80;;;29.40;67.40;;;;;;4975752;28;20466;-63
2022/04/14 10:50:03;;;;;;;18.83;17.20;;;29.50;66.70;;;;;;4975551;28;20962;-64
2022/04/14 10:52:29;;;;;;;15.77;14.10;;;29.60;64.50;;;;;;4975864;28;20902;-65
2022/04/14 10:54:58;;;;;;;15.00;13.63;;;29.90;67.90;;;;;;4975527;28;20946;-65
2022/04/14 10:57:38;;;;;;;15.67;14.13;;;30.20;64.80;;;;;;4975802;28;20465;-65
2022/04/14 11:00:38;;;;;;;14.50;12.27;;;30.10;63.30;;;;;;4975665;28;20458;-65
2022/04/14 11:03:11;;;;;;;18.23;16.40;;;29.70;65.40;;;;;;4970802;28;20466;-65
2022/04/14 11:05:40;;;;;;;18.97;14.27;;;29.60;63.60;;;;;;4975493;28;20478;-65
2022/04/14 11:08:27;;;;;;;19.47;17.63;;;29.70;65.70;;;;;;4976201;28;20466;-65
2022/04/14 11:11:07;;;;;;;16.07;14.50;;;29.00;64.80;;;;;;4975164;28;20957;-65
2022/04/14 11:14:10;;;;;;;16.70;14.83;;;28.70;69.80;;;;;;4975439;28;20910;-65
2022/04/14 11:16:41;;;;;;;17.50;15.70;;;28.60;69.30;;;;;;4975918;28;20552;-65
2022/04/14 11:19:27;;;;;;;18.70;16.77;;;28.20;70.40;;;;;;4976045;28;20470;-65
2022/04/14 11:22:03;;;;;;;15.37;13.80;;;28.00;72.40;;;;;;4976409;28;20490;-66
2022/04/14 11:24:42;;;;;;;17.90;16.37;;;28.10;71.50;;;;;;4976175;28;20490;-66
2022/04/14 11:27:11;;;;;;;18.63;16.07;;;27.70;72.20;;;;;;4976403;28;20470;-68
2022/04/14 11:29:38;;;;;;;18.20;16.40;;;27.30;73.10;;;;;;4976480;28;20454;-65
2022/04/14 11:32:05;;;;;;;18.67;16.97;;;27.10;75.30;;;;;;4976423;28;20557;-65
2022/04/14 11:34:32;;;;;;;21.77;19.53;;;26.70;76.40;;;;;;4976369;28;20816;-65
2022/04/14 11:37:01;;;;;;;17.83;16.27;;;26.30;79.60;;;;;;4975959;28;20871;-65
2022/04/14 11:39:29;;;;;;;21.20;19.27;;;26.20;80.20;;;;;;4976454;28;20495;-65
2022/04/14 11:42:07;;;;;;;18.77;17.17;;;26.20;79.10;;;;;;4977311;28;20521;-65
2022/04/14 11:44:35;;;;;;;19.77;17.90;;;26.20;81.80;;;;;;4976207;28;20450;-65
2022/04/14 11:47:04;;;;;;;17.70;16.10;;;26.20;80.50;;;;;;4977053;28;20465;-65
2022/04/14 11:49:32;;;;;;;20.63;15.97;;;26.00;77.80;;;;;;4976207;28;20455;-65
2022/04/14 11:52:00;;;;;;;15.70;14.13;;;25.40;79.50;;;;;;4975253;28;20481;-65
2022/04/14 11:54:37;;;;;;;15.17;13.60;;;25.20;81.10;;;;;;4974822;28;20790;-65
2022/04/14 11:57:09;;;;;;;16.23;14.80;;;25.20;76.90;;;;;;4974928;28;20446;-65
2022/04/14 11:59:37;;;;;;;16.03;14.67;;;25.00;79.90;;;;;;4974880;28;20446;-65
2022/04/14 12:02:07;;;;;;;19.30;17.23;;;24.90;83.00;;;;;;4974612;28;20490;-65
2022/04/14 12:04:36;;;;;;;18.10;15.30;;;24.90;80.60;;;;;;4975161;28;20545;-65
2022/04/14 12:07:03;;;;;;;16.20;14.70;;;24.90;81.40;;;;;;4974646;28;20542;-65
2022/04/14 12:09:30;;;;;;;17.73;15.90;;;24.90;83.20;;;;;;4975677;28;20565;-65
2022/04/14 12:11:58;;;;;;;20.37;16.57;;;25.00;84.10;;;;;;4975804;28;20478;-65
2022/04/14 12:14:25;;;;;;;19.20;17.27;;;25.10;84.10;;;;;;4978491;28;20465;-65
2022/04/14 12:16:54;;;;;;;20.73;14.97;;;25.40;85.30;;;;;;4979740;28;20458;-65
2022/04/14 12:19:21;;;;;;;16.70;15.00;;;25.40;84.10;;;;;;4980798;28;20459;-65
2022/04/14 12:22:02;;;;;;;18.60;16.70;;;25.50;83.30;;;;;;4981060;28;20470;-65
2022/04/14 12:24:29;;;;;;;20.43;16.60;;;25.60;84.20;;;;;;4990293;28;20945;-65
2022/04/14 12:26:58;;;;;;;19.37;16.47;;;25.60;82.80;;;;;;4979467;28;20457;-65
2022/04/14 12:29:25;;;;;;;17.57;15.77;;;25.50;85.40;;;;;;4979114;28;20895;-65
2022/04/14 12:31:56;;;;;;;17.23;15.47;;;25.50;84.50;;;;;;4978808;28;20485;-64
2022/04/14 12:34:23;;;;;;;15.70;14.30;;;25.40;82.70;;;;;;4978377;28;20439;-64
2022/04/14 12:36:50;;;;;;;15.93;14.43;;;25.30;83.80;;;;;;4977989;28;20454;-63
2022/04/14 12:39:20;;;;;;;16.17;14.57;;;25.20;84.70;;;;;;4978047;28;20493;-63
2022/04/14 12:41:48;;;;;;;15.13;13.53;;;25.20;85.50;;;;;;4977894;28;20526;-63
2022/04/14 12:44:20;;;;;;;17.23;12.30;;;25.50;83.40;;;;;;4977801;28;20480;-63
2022/04/14 12:46:50;;;;;;;16.40;14.50;;;25.70;85.30;;;;;;4977840;28;20500;-62
2022/04/14 12:49:19;;;;;;;15.50;12.60;;;25.70;82.70;;;;;;4977738;28;20482;-62
2022/04/14 12:51:54;;;;;;;15.87;14.20;;;25.90;82.00;;;;;;4978308;28;20493;-62
2022/04/14 12:54:23;;;;;;;16.23;14.60;;;26.10;81.20;;;;;;4977715;28;20839;-62
2022/04/14 12:57:01;;;;;;;15.80;14.40;;;25.90;81.10;;;;;;4977569;28;20455;-63
2022/04/14 12:59:31;;;;;;;14.97;13.50;;;25.80;81.20;;;;;;4977470;28;20911;-62
2022/04/14 13:02:04;;;;;;;15.97;14.23;;;25.70;81.80;;;;;;4977223;28;20485;-63
2022/04/14 13:04:34;;;;;;;15.93;14.47;;;25.70;81.50;;;;;;4977487;28;20463;-62
2022/04/14 13:07:06;;;;;;;16.37;14.83;;;25.60;82.70;;;;;;4977545;28;20443;-62
2022/04/14 13:09:33;;;;;;;15.40;13.90;;;25.50;83.20;;;;;;4977713;28;20466;-62
2022/04/14 13:12:00;;;;;;;16.67;15.00;;;25.30;83.40;;;;;;4977432;28;20600;-63
2022/04/14 13:14:30;;;;;;;19.50;17.40;;;25.30;84.90;;;;;;4977756;28;20451;-62
2022/04/14 13:16:58;;;;;;;16.30;13.77;;;25.20;84.80;;;;;;4977450;28;20454;-62
2022/04/14 13:19:26;;;;;;;14.90;13.60;;;25.40;82.90;;;;;;4977430;28;20484;-62
2022/04/14 13:21:53;;;;;;;17.40;16.00;;;25.40;84.00;;;;;;4977299;28;20482;-62
2022/04/14 13:24:24;;;;;;;18.70;16.70;;;25.40;82.30;;;;;;4976773;28;21019;-62
2022/04/14 13:26:51;;;;;;;22.60;20.60;;;25.30;85.70;;;;;;4977255;28;20527;-62
2022/04/14 13:29:21;;;;;;;20.47;18.80;;;25.20;87.30;;;;;;4977685;28;20794;-63
2022/04/14 13:31:51;;;;;;;18.23;16.67;;;25.20;87.70;;;;;;4977024;28;20479;-64
2022/04/14 13:34:18;;;;;;;20.47;18.37;;;25.20;88.50;;;;;;4976598;28;20454;-63
2022/04/14 13:36:45;;;;;;;19.97;18.03;;;25.10;87.90;;;;;;4976666;28;20455;-63
2022/04/14 13:39:11;;;;;;;19.50;17.30;;;25.10;87.30;;;;;;4976494;28;20800;-63
2022/04/14 13:41:38;;;;;;;16.10;14.50;;;25.10;89.30;;;;;;4976766;28;20474;-63
2022/04/14 13:44:05;;;;;;;19.87;17.93;;;25.20;90.00;;;;;;4976651;28;21005;-63
2022/04/14 13:46:32;;;;;;;18.40;16.67;;;25.20;87.20;;;;;;4976429;28;20451;-63
2022/04/14 13:49:00;;;;;;;22.27;20.17;;;25.30;88.00;;;;;;4976651;28;20450;-63
2022/04/14 13:51:27;;;;;;;24.00;21.40;;;25.00;85.40;;;;;;4976269;28;20479;-63
2022/04/14 13:53:54;;;;;;;19.90;18.03;;;24.60;87.70;;;;;;4976723;28;20435;-63
2022/04/14 13:56:20;;;;;;;20.23;18.23;;;24.30;89.90;;;;;;4976317;28;20482;-63
2022/04/14 13:58:47;;;;;;;20.17;18.20;;;24.40;90.10;;;;;;4976611;28;20455;-64
2022/04/14 14:01:14;;;;;;;18.93;17.00;;;24.60;90.00;;;;;;4976264;28;20902;-64
2022/04/14 14:03:41;;;;;;;18.97;17.03;;;24.60;90.10;;;;;;4977035;28;20487;-64
2022/04/14 14:06:09;;;;;;;17.10;15.70;;;24.80;88.20;;;;;;4976446;28;20461;-63
2022/04/14 14:08:36;;;;;;;19.27;17.67;;;24.90;88.40;;;;;;4976348;28;20443;-63
2022/04/14 14:11:03;;;;;;;16.63;15.23;;;24.90;87.30;;;;;;4976562;28;20569;-63
2022/04/14 14:13:30;;;;;;;17.17;15.43;;;24.90;87.50;;;;;;4976107;28;20531;-63
2022/04/14 14:15:57;;;;;;;18.37;16.30;;;24.90;86.20;;;;;;4976369;28;20466;-63
2022/04/14 14:18:24;;;;;;;19.30;17.60;;;24.70;88.10;;;;;;4975923;28;20494;-63
2022/04/14 14:20:50;;;;;;;17.90;16.13;;;24.70;86.90;;;;;;4976631;28;20501;-63
2022/04/14 14:23:18;;;;;;;17.67;16.13;;;24.70;86.30;;;;;;4975950;28;20515;-63
2022/04/14 14:25:45;;;;;;;17.70;15.10;;;24.50;86.60;;;;;;4976268;28;20472;-63
2022/04/14 14:28:12;;;;;;;17.70;16.07;;;24.70;89.30;;;;;;4975921;28;20997;-63
2022/04/14 14:30:40;;;;;;;17.63;15.80;;;24.70;86.60;;;;;;4976137;28;20482;-64
2022/04/14 14:33:07;;;;;;;15.07;13.00;;;24.60;86.70;;;;;;4975809;28;20450;-64
2022/04/14 14:35:34;;;;;;;18.63;16.87;;;24.80;90.10;;;;;;4975579;28;20462;-63
2022/04/14 14:38:01;;;;;;;18.43;16.70;;;24.80;86.70;;;;;;4975718;28;20450;-63
2022/04/14 14:40:30;;;;;;;17.27;15.57;;;24.60;87.70;;;;;;4975733;28;20465;-63
2022/04/14 14:42:56;;;;;;;16.80;15.03;;;24.50;87.10;;;;;;4975307;28;20818;-63
2022/04/14 14:45:23;;;;;;;17.10;15.43;;;24.30;87.90;;;;;;4975746;28;20455;-63
2022/04/14 14:47:50;;;;;;;17.93;16.13;;;24.30;88.60;;;;;;4975631;28;20462;-64
2022/04/14 14:50:17;;;;;;;16.27;14.87;;;24.00;89.70;;;;;;4975675;28;20821;-62
2022/04/14 14:52:44;;;;;;;14.93;13.53;;;23.90;89.30;;;;;;4975767;28;20458;-62
2022/04/14 14:55:11;;;;;;;17.30;15.53;;;23.90;90.30;;;;;;4975632;28;20458;-63
2022/04/14 15:00:24;;;;;;;15.10;13.80;;;24.00;90.60;;;;;;4975157;28;20780;-62
2022/04/14 15:02:51;;;;;;;18.73;15.27;;;23.90;89.60;;;;;;4975144;28;20915;-63
2022/04/14 15:05:17;;;;;;;17.57;15.97;;;23.80;90.10;;;;;;4975242;28;20826;-63
2022/04/14 15:07:44;;;;;;;17.97;16.20;;;23.80;90.70;;;;;;4975327;28;20561;-63
2022/04/14 15:10:11;;;;;;;17.77;15.97;;;23.70;90.30;;;;;;4975446;28;20458;-63
2022/04/14 15:12:39;;;;;;;14.33;13.07;;;23.50;90.80;;;;;;4975426;28;20474;-61
2022/04/14 15:15:06;;;;;;;16.23;14.63;;;23.40;91.60;;;;;;4975306;28;20454;-62
2022/04/14 15:17:33;;;;;;;16.20;14.67;;;23.40;91.40;;;;;;4975360;28;20446;-61
2022/04/14 15:20:00;;;;;;;18.27;16.50;;;23.30;91.30;;;;;;4975206;28;20457;-61
2022/04/14 15:22:26;;;;;;;16.67;15.10;;;23.30;91.90;;;;;;4975228;28;20478;-61
2022/04/14 15:24:53;;;;;;;16.43;14.23;;;23.30;91.80;;;;;;4975215;28;20817;-61
2022/04/14 15:27:20;;;;;;;19.50;15.50;;;23.30;91.60;;;;;;4975358;28;20455;-61
2022/04/14 15:29:48;;;;;;;15.17;13.70;;;23.30;91.30;;;;;;4975207;28;20468;-62
2022/04/14 15:32:16;;;;;;;17.70;15.90;;;23.30;90.70;;;;;;4975139;28;21012;-62
2022/04/14 15:34:43;;;;;;;16.83;13.37;;;23.30;90.80;;;;;;4988056;28;20447;-63
2022/04/14 15:37:10;;;;;;;18.67;16.67;;;23.10;91.00;;;;;;4986964;28;20455;-64
2022/04/14 15:39:37;;;;;;;16.60;14.97;;;23.00;91.00;;;;;;4975931;28;20812;-62
2022/04/14 15:42:04;;;;;;;12.77;11.70;;;23.00;91.40;;;;;;4975264;28;20486;-62
2022/04/14 15:44:31;;;;;;;16.00;14.60;;;23.00;92.40;;;;;;4975065;28;20463;-65
2022/04/14 15:46:59;;;;;;;14.83;13.23;;;22.90;92.30;;;;;;4974767;28;20945;-63
2022/04/14 15:49:26;;;;;;;16.63;12.70;;;22.90;92.50;;;;;;4977787;28;20463;-63
2022/04/14 15:51:53;;;;;;;15.00;13.60;;;23.00;92.90;;;;;;4978875;28;20533;-65
2022/04/14 15:54:19;;;;;;;15.80;14.30;;;23.00;92.50;;;;;;4978882;28;20477;-64
2022/04/14 15:56:46;;;;;;;19.50;14.63;;;23.10;92.30;;;;;;4978931;28;20509;-64
2022/04/14 15:59:13;;;;;;;17.00;15.00;;;23.10;92.60;;;;;;4978459;28;20513;-63
2022/04/14 16:01:39;;;;;;;16.97;14.30;;;23.10;92.10;;;;;;4978461;28;20494;-64
2022/04/14 16:04:07;;;;;;;16.97;13.97;;;23.00;92.10;;;;;;4978760;28;20487;-64
2022/04/14 16:06:34;;;;;;;15.53;13.37;;;22.80;92.20;;;;;;4978877;28;20462;-65
2022/04/14 16:09:04;;;;;;;15.40;13.90;;;22.80;92.60;;;;;;4978983;28;20454;-63
2022/04/14 16:14:15;;;;;;;17.73;13.33;;;22.90;91.80;;;;;;4978907;28;20434;-63
2022/04/14 16:16:43;;;;;;;16.10;14.47;;;22.90;92.20;;;;;;4978777;28;20443;-63
2022/04/14 16:19:11;;;;;;;14.00;12.70;;;22.90;91.90;;;;;;4978479;28;20457;-63
2022/04/14 16:21:39;;;;;;;17.40;15.63;;;22.90;92.40;;;;;;4978094;28;20839;-64
2022/04/14 16:24:08;;;;;;;15.37;13.90;;;22.80;91.90;;;;;;4978248;28;20673;-64
2022/04/14 16:26:35;;;;;;;14.87;13.43;;;22.70;91.80;;;;;;4978340;28;20443;-63
2022/04/14 16:29:01;;;;;;;14.80;13.33;;;22.60;92.00;;;;;;4977901;28;20947;-63
2022/04/14 16:31:29;;;;;;;15.73;13.20;;;22.70;92.60;;;;;;4978127;28;20478;-63
2022/04/14 16:33:56;;;;;;;17.33;14.07;;;22.60;92.60;;;;;;4978110;28;20490;-63
2022/04/14 16:36:24;;;;;;;14.73;13.37;;;22.40;92.60;;;;;;4978090;28;20465;-63
2022/04/14 16:38:50;;;;;;;15.60;14.13;;;22.40;93.00;;;;;;4978035;28;20454;-63
2022/04/14 16:41:17;;;;;;;17.07;14.20;;;22.20;93.20;;;;;;4978048;28;20479;-63